createdAt,value
2018-06-29T00:01:14.641Z,56.23
2018-06-29T00:03:44.376Z,56.51
2018-06-29T00:06:13.909Z,55.17
2018-06-29T00:08:43.113Z,55.81
2018-06-29T00:11:13.208Z,55.63
2018-06-29T00:13:42.685Z,55.86
2018-06-29T00:16:12.493Z,56.04
2018-06-29T00:18:42.564Z,56.75
2018-06-29T00:21:12.147Z,56.64
2018-06-29T00:23:43.310Z,57.02
2018-06-29T00:26:12.932Z,57.63
2018-06-29T00:28:42.408Z,57.88
2018-06-29T00:31:12.390Z,57.80
2018-06-29T00:33:41.977Z,58.34
2018-06-29T00:36:11.496Z,57.92
2018-06-29T00:38:41.211Z,57.42
2018-06-29T00:41:11.014Z,58.34
2018-06-29T00:43:41.249Z,58.66
2018-06-29T00:46:10.789Z,59.60
2018-06-29T00:48:40.495Z,58.92
2018-06-29T00:51:10.031Z,59.32
2018-06-29T00:53:40.580Z,59.09
2018-06-29T00:56:10.638Z,59.03
2018-06-29T00:58:40.808Z,58.89
2018-06-29T01:01:10.338Z,58.79
2018-06-29T01:03:40.544Z,59.28
2018-06-29T01:06:10.136Z,59.34
2018-06-29T01:08:39.678Z,58.66
2018-06-29T01:11:09.240Z,58.33
2018-06-29T01:13:38.714Z,59.51
2018-06-29T01:16:08.711Z,59.58
2018-06-29T01:18:38.654Z,58.59
2018-06-29T01:21:08.126Z,59.43
2018-06-29T01:23:37.700Z,60.15
2018-06-29T01:26:07.324Z,59.35
2018-06-29T01:28:36.894Z,59.34
2018-06-29T01:31:06.373Z,60.12
2018-06-29T01:33:35.858Z,59.01
2018-06-29T01:36:05.344Z,59.70
2018-06-29T01:38:34.929Z,60.43
2018-06-29T01:41:04.418Z,59.36
2018-06-29T01:43:33.912Z,59.50
2018-06-29T01:46:03.426Z,59.97
2018-06-29T01:48:33.330Z,59.94
2018-06-29T01:51:02.900Z,59.97
2018-06-29T01:53:32.381Z,61.02
2018-06-29T01:56:02.334Z,59.32
2018-06-29T01:58:32.326Z,61.16
2018-06-29T02:01:01.839Z,61.06
2018-06-29T02:03:31.349Z,60.67
2018-06-29T02:06:00.941Z,61.14
2018-06-29T02:08:30.701Z,61.09
2018-06-29T02:11:01.594Z,60.49
2018-06-29T02:13:31.117Z,59.74
2018-06-29T02:16:00.744Z,60.26
2018-06-29T02:18:31.117Z,60.65
2018-06-29T02:21:01.270Z,60.54
2018-06-29T02:23:31.487Z,60.91
2018-06-29T02:26:01.009Z,60.51
2018-06-29T02:28:30.654Z,59.79
2018-06-29T02:31:00.236Z,60.76
2018-06-29T02:33:29.851Z,60.81
2018-06-29T02:36:00.075Z,60.49
2018-06-29T02:38:29.646Z,60.65
2018-06-29T02:40:59.278Z,60.41
2018-06-29T02:43:28.890Z,60.46
2018-06-29T02:45:58.926Z,59.29
2018-06-29T02:48:28.529Z,61.01
2018-06-29T02:50:58.615Z,59.89
2018-06-29T02:53:28.352Z,59.64
2018-06-29T02:55:57.858Z,60.32
2018-06-29T02:58:27.409Z,60.16
2018-06-29T03:00:57.070Z,60.35
2018-06-29T03:03:26.561Z,60.87
2018-06-29T03:05:56.107Z,61.42
2018-06-29T03:08:25.597Z,61.45
2018-06-29T03:10:55.322Z,61.51
2018-06-29T03:13:24.865Z,61.15
2018-06-29T03:15:54.310Z,60.62
2018-06-29T03:18:24.459Z,60.39
2018-06-29T03:20:54.065Z,60.71
2018-06-29T03:23:24.383Z,61.80
2018-06-29T03:25:53.912Z,61.33
2018-06-29T03:28:23.393Z,60.84
2018-06-29T03:30:52.873Z,60.21
2018-06-29T03:33:22.381Z,60.59
2018-06-29T03:35:51.999Z,61.90
2018-06-29T03:38:21.561Z,60.83
2018-06-29T03:40:51.068Z,60.32
2018-06-29T03:43:20.568Z,60.38
2018-06-29T03:45:50.164Z,60.40
2018-06-29T03:48:19.660Z,59.50
2018-06-29T03:50:49.139Z,60.38
2018-06-29T03:53:18.655Z,60.11
2018-06-29T03:55:48.149Z,59.56
2018-06-29T03:58:17.685Z,60.12
2018-06-29T04:00:47.187Z,59.86
2018-06-29T04:03:16.990Z,59.83
2018-06-29T04:05:47.234Z,59.77
2018-06-29T04:08:18.453Z,58.82
2018-06-29T04:10:52.231Z,60.58
2018-06-29T04:13:25.735Z,59.49
2018-06-29T04:15:55.279Z,60.38
2018-06-29T04:18:25.359Z,59.26
2018-06-29T04:20:55.005Z,59.88
2018-06-29T04:23:24.833Z,60.03
2018-06-29T04:25:54.297Z,59.86
2018-06-29T04:28:23.881Z,59.22
2018-06-29T04:30:53.843Z,59.94
2018-06-29T04:33:23.327Z,59.08
2018-06-29T04:35:52.874Z,59.38
2018-06-29T04:38:22.578Z,59.46
2018-06-29T04:40:52.189Z,59.91
2018-06-29T04:43:21.759Z,59.78
2018-06-29T04:45:52.789Z,58.54
2018-06-29T04:48:22.246Z,57.71
2018-06-29T04:50:51.754Z,57.62
2018-06-29T04:53:21.250Z,57.85
2018-06-29T04:55:51.244Z,57.64
2018-06-29T04:58:20.721Z,57.05
2018-06-29T05:00:50.674Z,57.43
2018-06-29T05:03:20.323Z,57.09
2018-06-29T05:05:50.737Z,57.14
2018-06-29T05:08:20.660Z,57.10
2018-06-29T05:10:50.219Z,56.68
2018-06-29T05:13:19.720Z,57.19
2018-06-29T05:15:49.818Z,57.39
2018-06-29T05:18:19.841Z,56.69
2018-06-29T05:20:50.410Z,58.17
2018-06-29T05:23:20.057Z,57.29
2018-06-29T05:25:49.556Z,56.57
2018-06-29T05:28:19.159Z,56.24
2018-06-29T05:30:48.657Z,55.67
2018-06-29T05:33:18.915Z,55.36
2018-06-29T05:35:49.404Z,56.93
2018-06-29T05:38:19.441Z,56.84
2018-06-29T05:40:49.616Z,56.56
2018-06-29T05:43:19.139Z,55.90
2018-06-29T05:45:49.137Z,56.65
2018-06-29T05:48:18.769Z,55.93
2018-06-29T05:50:49.009Z,55.74
2018-06-29T05:53:19.209Z,55.48
2018-06-29T05:55:49.496Z,55.87
2018-06-29T05:58:19.009Z,55.66
2018-06-29T06:00:49.380Z,51.88
2018-06-29T06:03:19.048Z,51.39
2018-06-29T06:05:48.876Z,50.15
2018-06-29T06:08:19.210Z,50.80
2018-06-29T06:10:48.697Z,49.79
2018-06-29T06:13:18.232Z,50.31
2018-06-29T06:15:47.718Z,49.39
2018-06-29T06:18:17.781Z,49.65
2018-06-29T06:20:47.430Z,51.21
2018-06-29T06:23:19.681Z,52.33
2018-06-29T06:25:49.490Z,49.88
2018-06-29T06:28:19.437Z,49.39
2018-06-29T06:30:48.940Z,49.72
2018-06-29T06:33:18.455Z,48.90
2018-06-29T06:35:47.984Z,48.77
2018-06-29T06:38:17.474Z,46.47
2018-06-29T06:40:47.020Z,45.03
2018-06-29T06:43:16.545Z,45.35
2018-06-29T06:45:46.068Z,42.05
2018-06-29T06:48:15.644Z,33.36
2018-06-29T06:50:45.231Z,27.62
2018-06-29T06:53:14.724Z,23.12
2018-06-29T06:55:45.656Z,20.66
2018-06-29T06:58:15.249Z,18.22
2018-06-29T07:00:46.339Z,17.66
2018-06-29T07:03:15.854Z,16.53
2018-06-29T07:05:45.385Z,15.35
2018-06-29T07:08:14.968Z,13.46
2018-06-29T07:10:44.524Z,12.90
2018-06-29T07:13:14.066Z,12.00
2018-06-29T07:15:43.606Z,11.35
2018-06-29T07:18:13.298Z,11.06
2018-06-29T07:20:43.627Z,10.42
2018-06-29T07:23:16.704Z,10.19
2018-06-29T07:25:46.143Z,9.03
2018-06-29T07:28:15.603Z,10.19
2018-06-29T07:30:45.674Z,9.30
2018-06-29T07:33:15.271Z,8.67
2018-06-29T07:35:46.576Z,7.87
2018-06-29T07:38:15.807Z,7.61
2018-06-29T07:40:45.552Z,6.88
2018-06-29T07:43:16.701Z,7.09
2018-06-29T07:45:46.430Z,6.87
2018-06-29T07:48:17.101Z,6.96
2018-06-29T07:50:46.652Z,7.09
2018-06-29T07:53:16.308Z,7.05
2018-06-29T07:55:46.397Z,7.25
2018-06-29T07:58:16.552Z,6.86
2018-06-29T08:00:46.009Z,6.99
2018-06-29T08:03:15.768Z,8.66
2018-06-29T08:05:45.576Z,11.32
2018-06-29T08:08:15.344Z,13.73
2018-06-29T08:10:45.632Z,17.37
2018-06-29T08:13:15.609Z,19.53
2018-06-29T08:15:45.063Z,22.11
2018-06-29T08:18:14.612Z,23.55
2018-06-29T08:20:44.275Z,23.73
2018-06-29T08:23:13.847Z,24.29
2018-06-29T08:25:43.354Z,25.61
2018-06-29T08:28:13.432Z,26.76
2018-06-29T08:30:42.970Z,27.20
2018-06-29T08:33:12.430Z,28.30
2018-06-29T08:35:41.910Z,27.41
2018-06-29T08:38:11.647Z,27.54
2018-06-29T08:40:41.206Z,28.68
2018-06-29T08:43:10.686Z,28.59
2018-06-29T08:45:40.377Z,29.44
2018-06-29T08:48:09.945Z,29.62
2018-06-29T08:50:40.612Z,29.33
2018-06-29T08:53:10.729Z,29.81
2018-06-29T08:55:40.176Z,30.32
2018-06-29T08:58:10.349Z,30.32
2018-06-29T09:00:39.929Z,30.64
2018-06-29T09:03:09.414Z,29.56
2018-06-29T09:05:38.884Z,30.31
2018-06-29T09:08:09.239Z,29.93
2018-06-29T09:10:39.769Z,28.92
2018-06-29T09:13:09.770Z,29.16
2018-06-29T09:15:39.253Z,28.49
2018-06-29T09:18:08.729Z,29.19
2018-06-29T09:20:39.423Z,27.94
2018-06-29T09:23:09.195Z,28.80
2018-06-29T09:25:38.710Z,29.16
2018-06-29T09:28:08.733Z,28.79
2018-06-29T09:30:38.249Z,28.95
2018-06-29T09:33:07.867Z,28.22
2018-06-29T09:35:38.310Z,27.92
2018-06-29T09:38:08.493Z,28.36
2018-06-29T09:40:38.022Z,27.35
2018-06-29T09:43:08.215Z,27.41
2018-06-29T09:45:38.159Z,27.13
2018-06-29T09:48:07.845Z,27.20
2018-06-29T09:50:37.174Z,27.05
2018-06-29T09:53:07.222Z,27.50
2018-06-29T09:55:37.007Z,26.37
2018-06-29T09:58:07.139Z,25.44
2018-06-29T10:00:36.681Z,26.30
2018-06-29T10:03:07.125Z,25.39
2018-06-29T10:05:36.661Z,25.51
2018-06-29T10:08:06.174Z,25.85
2018-06-29T10:10:35.656Z,26.13
2018-06-29T10:13:05.642Z,24.98
2018-06-29T10:15:35.785Z,25.34
2018-06-29T10:18:05.289Z,25.32
2018-06-29T10:20:34.813Z,25.18
2018-06-29T10:23:04.409Z,25.23
2018-06-29T10:25:34.135Z,25.56
2018-06-29T10:28:07.641Z,25.96
2018-06-29T10:30:37.043Z,26.13
2018-06-29T10:33:07.244Z,25.55
2018-06-29T10:35:37.048Z,26.51
2018-06-29T10:38:06.836Z,25.50
2018-06-29T10:40:36.474Z,25.07
2018-06-29T10:43:05.990Z,26.11
2018-06-29T10:45:35.521Z,26.04
2018-06-29T10:48:05.190Z,25.66
2018-06-29T10:50:34.840Z,25.04
2018-06-29T10:53:04.347Z,24.46
2018-06-29T10:55:33.832Z,24.07
2018-06-29T10:58:03.347Z,23.69
2018-06-29T11:00:33.405Z,21.94
2018-06-29T11:03:02.962Z,21.35
2018-06-29T11:05:32.491Z,20.40
2018-06-29T11:08:01.999Z,20.22
2018-06-29T11:10:34.026Z,20.26
2018-06-29T11:13:04.743Z,19.76
2018-06-29T11:15:34.622Z,19.02
2018-06-29T11:18:04.703Z,19.23
2018-06-29T11:20:34.839Z,18.80
2018-06-29T11:23:04.313Z,18.89
2018-06-29T11:25:33.875Z,18.60
2018-06-29T11:28:03.419Z,18.41
2018-06-29T11:30:32.971Z,19.16
2018-06-29T11:33:02.639Z,19.09
2018-06-29T11:35:32.321Z,18.09
2018-06-29T11:38:02.471Z,16.84
2018-06-29T11:40:32.263Z,16.82
2018-06-29T11:43:01.960Z,16.42
2018-06-29T11:45:31.512Z,14.73
2018-06-29T11:48:01.652Z,14.41
2018-06-29T11:50:32.459Z,13.88
2018-06-29T11:53:01.981Z,14.31
2018-06-29T11:55:31.830Z,13.44
2018-06-29T11:58:01.324Z,12.42
2018-06-29T12:00:30.774Z,11.76
2018-06-29T12:03:00.541Z,10.82
2018-06-29T12:05:30.185Z,10.97
2018-06-29T12:07:59.723Z,10.72
2018-06-29T12:10:33.981Z,10.09
2018-06-29T12:13:03.742Z,10.30
2018-06-29T12:15:34.204Z,10.63
2018-06-29T12:18:03.781Z,9.88
2018-06-29T12:20:36.597Z,9.64
2018-06-29T12:23:06.950Z,9.24
2018-06-29T12:25:36.525Z,9.82
2018-06-29T12:28:06.604Z,10.32
2018-06-29T12:30:36.261Z,10.44
2018-06-29T12:33:12.206Z,10.57
2018-06-29T12:35:42.849Z,10.10
2018-06-29T12:38:12.981Z,8.91
2018-06-29T12:40:42.921Z,8.71
2018-06-29T12:43:13.575Z,9.24
2018-06-29T12:45:43.699Z,8.36
2018-06-29T12:48:13.670Z,9.16
2018-06-29T12:50:44.047Z,8.48
2018-06-29T12:53:13.712Z,8.84
2018-06-29T12:55:43.316Z,8.81
2018-06-29T12:58:12.659Z,9.11
2018-06-29T13:00:43.052Z,9.23
2018-06-29T13:03:13.568Z,9.63
2018-06-29T13:05:43.790Z,9.32
2018-06-29T13:08:13.201Z,8.87
2018-06-29T13:10:42.677Z,8.95
2018-06-29T13:13:12.372Z,8.60
2018-06-29T13:15:41.651Z,9.20
2018-06-29T13:18:12.251Z,9.17
2018-06-29T13:20:41.843Z,8.96
2018-06-29T13:23:11.306Z,9.06
2018-06-29T13:25:41.039Z,9.38
2018-06-29T13:28:10.545Z,9.08
2018-06-29T13:30:41.071Z,9.04
2018-06-29T13:33:10.573Z,9.52
2018-06-29T13:35:40.112Z,10.44
2018-06-29T13:38:09.920Z,10.56
2018-06-29T13:40:39.539Z,11.57
2018-06-29T13:43:10.309Z,11.49
2018-06-29T13:45:40.217Z,11.78
2018-06-29T13:48:10.699Z,12.19
2018-06-29T13:50:40.182Z,12.78
2018-06-29T13:53:11.813Z,12.53
2018-06-29T13:55:41.539Z,13.13
2018-06-29T13:58:11.053Z,12.92
2018-06-29T14:00:41.211Z,13.81
2018-06-29T14:03:10.894Z,15.46
2018-06-29T14:05:41.058Z,15.94
2018-06-29T14:08:10.546Z,16.02
2018-06-29T14:10:40.063Z,16.52
2018-06-29T14:13:10.115Z,16.98
2018-06-29T14:15:39.974Z,16.62
2018-06-29T14:18:09.507Z,16.33
2018-06-29T14:20:39.356Z,16.35
2018-06-29T14:23:08.893Z,16.89
2018-06-29T14:25:39.020Z,17.04
2018-06-29T14:28:09.557Z,18.54
2018-06-29T14:30:39.279Z,19.51
2018-06-29T14:33:08.887Z,19.54
2018-06-29T14:35:38.941Z,19.93
2018-06-29T14:38:08.436Z,20.43
2018-06-29T14:40:37.953Z,20.59
2018-06-29T14:43:08.009Z,21.31
2018-06-29T14:45:37.822Z,21.84
2018-06-29T14:48:08.198Z,22.39
2018-06-29T14:50:38.406Z,22.46
2018-06-29T14:53:08.114Z,22.87
2018-06-29T14:55:43.799Z,24.40
2018-06-29T14:58:24.234Z,24.03
2018-06-29T15:00:54.545Z,24.39
2018-06-29T15:03:24.028Z,24.32
2018-06-29T15:05:53.544Z,24.66
2018-06-29T15:08:23.128Z,24.37
2018-06-29T15:10:52.987Z,24.81
2018-06-29T15:13:23.249Z,23.98
2018-06-29T15:15:54.217Z,23.90
2018-06-29T15:18:23.724Z,23.09
2018-06-29T15:20:53.291Z,23.08
2018-06-29T15:23:22.781Z,23.03
2018-06-29T15:25:53.353Z,22.37
2018-06-29T15:28:22.921Z,22.71
2018-06-29T15:30:52.462Z,21.48
2018-06-29T15:33:22.695Z,19.78
2018-06-29T15:35:52.483Z,19.65
2018-06-29T15:38:22.024Z,19.09
2018-06-29T15:40:52.090Z,18.47
2018-06-29T15:43:21.598Z,18.51
2018-06-29T15:45:51.127Z,17.91
2018-06-29T15:48:20.691Z,18.05
2018-06-29T15:50:50.181Z,18.26
2018-06-29T15:53:19.644Z,18.00
2018-06-29T15:55:49.824Z,18.16
2018-06-29T15:58:19.338Z,18.20
2018-06-29T16:00:48.835Z,17.58
2018-06-29T16:03:18.385Z,17.49
2018-06-29T16:05:47.843Z,17.07
2018-06-29T16:08:17.328Z,17.40
2018-06-29T16:10:47.281Z,17.49
2018-06-29T16:13:17.039Z,17.46
2018-06-29T16:15:47.240Z,17.99
2018-06-29T16:18:16.694Z,17.62
2018-06-29T16:20:46.247Z,17.50
2018-06-29T16:23:15.721Z,17.68
2018-06-29T16:25:45.226Z,17.52
2018-06-29T16:28:15.111Z,18.36
2018-06-29T16:30:44.612Z,20.29
2018-06-29T16:33:14.130Z,21.91
2018-06-29T16:35:43.607Z,22.56
2018-06-29T16:38:13.100Z,22.89
2018-06-29T16:40:42.581Z,22.80
2018-06-29T16:43:12.138Z,22.17
2018-06-29T16:45:41.699Z,22.06
2018-06-29T16:48:12.886Z,22.19
2018-06-29T16:50:43.528Z,21.31
2018-06-29T16:53:13.224Z,21.51
2018-06-29T16:55:42.642Z,21.73
2018-06-29T16:58:12.143Z,22.11
2018-06-29T17:00:41.632Z,21.29
2018-06-29T17:03:12.170Z,22.01
2018-06-29T17:05:41.992Z,22.94
2018-06-29T17:08:10.922Z,23.52
2018-06-29T17:10:40.415Z,23.47
2018-06-29T17:13:09.894Z,22.42
2018-06-29T17:15:40.516Z,22.34
2018-06-29T17:18:10.092Z,21.45
2018-06-29T17:20:39.909Z,21.96
2018-06-29T17:23:09.132Z,22.28
2018-06-29T17:25:39.472Z,22.24
2018-06-29T17:28:09.037Z,21.96
2018-06-29T17:30:39.260Z,21.68
2018-06-29T17:33:09.121Z,22.02
2018-06-29T17:35:38.802Z,22.44
2018-06-29T17:38:08.191Z,23.61
2018-06-29T17:40:37.802Z,24.24
2018-06-29T17:43:07.470Z,23.60
2018-06-29T17:45:36.992Z,24.72
2018-06-29T17:48:06.498Z,24.58
2018-06-29T17:50:36.026Z,24.83
2018-06-29T17:53:05.833Z,24.14
2018-06-29T17:55:35.347Z,23.80
2018-06-29T17:58:05.330Z,24.05
2018-06-29T18:00:35.313Z,23.90
2018-06-29T18:03:05.407Z,25.33
2018-06-29T18:05:35.900Z,25.01
2018-06-29T18:08:05.380Z,25.25
2018-06-29T18:10:34.859Z,24.66
2018-06-29T18:13:04.497Z,24.68
2018-06-29T18:15:34.659Z,25.75
2018-06-29T18:18:04.323Z,26.28
2018-06-29T18:20:34.311Z,26.45
2018-06-29T18:23:04.110Z,26.01
2018-06-29T18:25:33.651Z,26.59
2018-06-29T18:28:03.739Z,27.51
2018-06-29T18:30:33.753Z,27.83
2018-06-29T18:33:04.595Z,29.12
2018-06-29T18:35:34.707Z,28.41
2018-06-29T18:38:04.789Z,27.74
2018-06-29T18:40:34.404Z,28.49
2018-06-29T18:43:08.310Z,29.51
2018-06-29T18:45:38.173Z,28.31
2018-06-29T18:48:09.013Z,29.23
2018-06-29T18:50:38.858Z,29.95
2018-06-29T18:53:08.507Z,30.36
2018-06-29T18:55:37.970Z,30.22
2018-06-29T18:58:07.854Z,31.50
2018-06-29T19:00:37.325Z,32.71
2018-06-29T19:03:06.750Z,34.05
2018-06-29T19:05:36.288Z,36.00
2018-06-29T19:08:05.843Z,36.49
2018-06-29T19:10:35.386Z,37.84
2018-06-29T19:13:04.910Z,38.47
2018-06-29T19:15:41.071Z,40.08
2018-06-29T19:18:10.542Z,40.67
2018-06-29T19:20:40.084Z,39.55
2018-06-29T19:23:09.607Z,39.62
2018-06-29T19:25:39.114Z,41.03
2018-06-29T19:28:08.698Z,41.78
2018-06-29T19:30:38.276Z,41.48
2018-06-29T19:33:08.130Z,43.02
2018-06-29T19:35:37.742Z,44.33
2018-06-29T19:38:07.526Z,44.17
2018-06-29T19:40:37.300Z,44.92
2018-06-29T19:43:07.005Z,45.52
2018-06-29T19:45:36.716Z,46.54
2018-06-29T19:48:07.847Z,45.57
2018-06-29T19:50:37.434Z,46.72
2018-06-29T19:53:07.966Z,47.78
2018-06-29T19:55:37.739Z,47.71
2018-06-29T19:58:07.420Z,47.73
2018-06-29T20:00:38.392Z,49.67
2018-06-29T20:03:08.093Z,48.67
2018-06-29T20:05:37.694Z,49.21
2018-06-29T20:08:07.257Z,49.48
2018-06-29T20:10:37.031Z,50.00
2018-06-29T20:13:06.865Z,50.91
2018-06-29T20:15:37.926Z,50.91
2018-06-29T20:18:08.080Z,51.89
2018-06-29T20:20:39.542Z,52.56
2018-06-29T20:23:09.072Z,52.30
2018-06-29T20:25:40.284Z,53.18
2018-06-29T20:28:10.375Z,52.87
2018-06-29T20:30:39.995Z,53.27
2018-06-29T20:33:09.697Z,53.26
2018-06-29T20:35:39.135Z,53.21
2018-06-29T20:38:09.605Z,53.44
2018-06-29T20:40:39.676Z,53.18
2018-06-29T20:43:10.554Z,52.74
2018-06-29T20:45:40.585Z,52.61
2018-06-29T20:48:10.815Z,53.57
2018-06-29T20:50:40.367Z,53.92
2018-06-29T20:53:10.132Z,53.84
2018-06-29T20:55:40.337Z,54.37
2018-06-29T20:58:09.896Z,55.33
2018-06-29T21:00:39.414Z,54.49
2018-06-29T21:03:08.910Z,54.97
2018-06-29T21:05:38.396Z,54.87
2018-06-29T21:08:08.258Z,55.32
2018-06-29T21:10:37.807Z,56.15
2018-06-29T21:13:07.454Z,56.02
2018-06-29T21:15:37.096Z,56.28
2018-06-29T21:18:06.654Z,55.62
2018-06-29T21:20:36.163Z,56.13
2018-06-29T21:23:05.700Z,55.08
2018-06-29T21:25:35.196Z,55.41
2018-06-29T21:28:04.664Z,57.26
2018-06-29T21:30:34.229Z,56.08
2018-06-29T21:33:03.756Z,56.41
2018-06-29T21:35:33.208Z,56.44
2018-06-29T21:38:02.680Z,56.08
2018-06-29T21:40:32.515Z,55.79
2018-06-29T21:43:02.021Z,56.43
2018-06-29T21:45:31.492Z,56.29
2018-06-29T21:48:01.084Z,56.58
2018-06-29T21:50:30.597Z,58.32
2018-06-29T21:53:00.304Z,57.47
2018-06-29T21:55:30.512Z,57.18
2018-06-29T21:58:00.080Z,57.53
2018-06-29T22:00:34.997Z,56.84
2018-06-29T22:03:10.022Z,57.89
2018-06-29T22:05:40.798Z,57.67
2018-06-29T22:08:10.828Z,57.46
2018-06-29T22:10:41.156Z,57.42
2018-06-29T22:13:10.671Z,57.92
2018-06-29T22:15:40.211Z,57.96
2018-06-29T22:18:09.849Z,57.30
2018-06-29T22:20:39.448Z,57.48
2018-06-29T22:23:08.971Z,56.92
2018-06-29T22:25:38.573Z,57.57
2018-06-29T22:28:08.186Z,57.55
2018-06-29T22:30:38.157Z,57.16
2018-06-29T22:33:07.722Z,57.23
2018-06-29T22:35:37.245Z,58.20
2018-06-29T22:38:06.821Z,58.72
2018-06-29T22:40:36.345Z,58.46
2018-06-29T22:43:05.822Z,57.49
2018-06-29T22:45:35.310Z,58.35
2018-06-29T22:48:04.926Z,57.71
2018-06-29T22:50:34.367Z,57.70
2018-06-29T22:53:03.937Z,58.31
2018-06-29T22:55:33.438Z,57.65
2018-06-29T22:58:02.862Z,58.05
2018-06-29T23:00:32.396Z,57.84
2018-06-29T23:03:09.828Z,58.63
2018-06-29T23:05:39.285Z,58.53
2018-06-29T23:08:10.288Z,58.44
2018-06-29T23:10:40.220Z,58.56
2018-06-29T23:13:10.220Z,58.42
2018-06-29T23:15:39.404Z,58.69
2018-06-29T23:18:08.924Z,58.29
2018-06-29T23:20:38.390Z,58.94
2018-06-29T23:23:08.021Z,58.81
2018-06-29T23:25:37.503Z,59.14
2018-06-29T23:28:07.034Z,58.79
2018-06-29T23:30:36.509Z,58.87
2018-06-29T23:33:06.331Z,59.41
2018-06-29T23:35:35.822Z,59.89
2018-06-29T23:38:05.424Z,60.24
2018-06-29T23:40:35.029Z,60.22
2018-06-29T23:43:04.668Z,60.32
2018-06-29T23:45:34.878Z,59.40
2018-06-29T23:48:04.478Z,60.49
2018-06-29T23:50:34.038Z,59.86
2018-06-29T23:53:03.982Z,60.54
2018-06-29T23:55:33.828Z,60.97
2018-06-29T23:58:03.327Z,59.77
